sensor_id;sensor_type;location;lat;lon;timestamp;P1;durP1;ratioP1;P2;durP2;ratioP2
28960;SDS011;16068;42.896;20.868;2023-08-20T00:00:34;4.22;;;3.30;;
28960;SDS011;16068;42.896;20.868;2023-08-20T00:03:20;7.93;;;3.30;;
28960;SDS011;16068;42.896;20.868;2023-08-20T00:06:18;10.77;;;4.10;;
28960;SDS011;16068;42.896;20.868;2023-08-20T00:09:05;6.95;;;3.25;;
28960;SDS011;16068;42.896;20.868;2023-08-20T00:11:54;9.82;;;3.38;;
28960;SDS011;16068;42.896;20.868;2023-08-20T00:14:51;5.95;;;3.47;;
28960;SDS011;16068;42.896;20.868;2023-08-20T00:17:44;5.85;;;2.95;;
28960;SDS011;16068;42.896;20.868;2023-08-20T00:20:30;9.48;;;3.72;;
28960;SDS011;16068;42.896;20.868;2023-08-20T00:23:16;9.32;;;4.20;;
28960;SDS011;16068;42.896;20.868;2023-08-20T00:26:03;7.85;;;3.40;;
28960;SDS011;16068;42.896;20.868;2023-08-20T00:28:49;4.78;;;3.42;;
28960;SDS011;16068;42.896;20.868;2023-08-20T00:31:36;5.95;;;3.50;;
28960;SDS011;16068;42.896;20.868;2023-08-20T00:34:22;7.35;;;3.47;;
28960;SDS011;16068;42.896;20.868;2023-08-20T00:37:08;5.38;;;3.60;;
28960;SDS011;16068;42.896;20.868;2023-08-20T00:39:55;4.88;;;3.42;;
28960;SDS011;16068;42.896;20.868;2023-08-20T00:42:42;6.78;;;3.90;;
28960;SDS011;16068;42.896;20.868;2023-08-20T00:45:28;8.88;;;3.33;;
28960;SDS011;16068;42.896;20.868;2023-08-20T00:48:15;7.28;;;3.55;;
28960;SDS011;16068;42.896;20.868;2023-08-20T00:51:02;5.40;;;3.22;;
28960;SDS011;16068;42.896;20.868;2023-08-20T00:53:48;9.35;;;3.40;;
28960;SDS011;16068;42.896;20.868;2023-08-20T00:56:34;7.72;;;3.60;;
28960;SDS011;16068;42.896;20.868;2023-08-20T00:59:21;18.55;;;3.65;;
28960;SDS011;16068;42.896;20.868;2023-08-20T01:02:08;5.95;;;3.50;;
28960;SDS011;16068;42.896;20.868;2023-08-20T01:04:54;8.05;;;3.80;;
28960;SDS011;16068;42.896;20.868;2023-08-20T01:08:41;9.35;;;3.47;;
28960;SDS011;16068;42.896;20.868;2023-08-20T01:11:52;11.35;;;3.70;;
28960;SDS011;16068;42.896;20.868;2023-08-20T01:14:22;5.95;;;3.30;;
28960;SDS011;16068;42.896;20.868;2023-08-20T01:17:21;8.02;;;3.28;;
28960;SDS011;16068;42.896;20.868;2023-08-20T01:20:08;7.65;;;3.60;;
28960;SDS011;16068;42.896;20.868;2023-08-20T01:23:11;9.85;;;3.55;;
28960;SDS011;16068;42.896;20.868;2023-08-20T01:26:21;5.10;;;3.00;;
28960;SDS011;16068;42.896;20.868;2023-08-20T01:29:17;8.23;;;3.72;;
28960;SDS011;16068;42.896;20.868;2023-08-20T01:32:05;9.85;;;4.20;;
28960;SDS011;16068;42.896;20.868;2023-08-20T01:34:52;4.32;;;3.15;;
28960;SDS011;16068;42.896;20.868;2023-08-20T01:37:40;10.77;;;3.67;;
28960;SDS011;16068;42.896;20.868;2023-08-20T01:40:27;6.93;;;3.78;;
28960;SDS011;16068;42.896;20.868;2023-08-20T01:43:14;7.25;;;3.17;;
28960;SDS011;16068;42.896;20.868;2023-08-20T01:46:00;6.82;;;3.50;;
28960;SDS011;16068;42.896;20.868;2023-08-20T01:48:47;8.15;;;3.42;;
28960;SDS011;16068;42.896;20.868;2023-08-20T01:51:35;8.25;;;3.05;;
28960;SDS011;16068;42.896;20.868;2023-08-20T01:54:21;7.85;;;3.55;;
28960;SDS011;16068;42.896;20.868;2023-08-20T01:57:09;5.35;;;3.42;;
28960;SDS011;16068;42.896;20.868;2023-08-20T01:59:57;6.20;;;3.85;;
28960;SDS011;16068;42.896;20.868;2023-08-20T02:02:48;6.72;;;3.75;;
28960;SDS011;16068;42.896;20.868;2023-08-20T02:05:34;9.10;;;3.35;;
28960;SDS011;16068;42.896;20.868;2023-08-20T02:08:20;5.60;;;3.60;;
28960;SDS011;16068;42.896;20.868;2023-08-20T02:11:08;4.85;;;3.50;;
28960;SDS011;16068;42.896;20.868;2023-08-20T02:13:54;7.28;;;3.33;;
28960;SDS011;16068;42.896;20.868;2023-08-20T02:16:40;8.77;;;4.00;;
28960;SDS011;16068;42.896;20.868;2023-08-20T02:19:26;5.47;;;3.38;;
28960;SDS011;16068;42.896;20.868;2023-08-20T02:22:12;7.97;;;3.72;;
28960;SDS011;16068;42.896;20.868;2023-08-20T02:24:58;7.43;;;3.70;;
28960;SDS011;16068;42.896;20.868;2023-08-20T02:27:44;8.18;;;3.65;;
28960;SDS011;16068;42.896;20.868;2023-08-20T02:30:30;4.68;;;3.25;;
28960;SDS011;16068;42.896;20.868;2023-08-20T02:33:16;5.35;;;3.53;;
28960;SDS011;16068;42.896;20.868;2023-08-20T02:36:09;4.93;;;3.50;;
28960;SDS011;16068;42.896;20.868;2023-08-20T02:38:55;8.77;;;3.40;;
28960;SDS011;16068;42.896;20.868;2023-08-20T02:41:41;6.45;;;3.35;;
28960;SDS011;16068;42.896;20.868;2023-08-20T02:48:35;6.20;;;3.38;;
28960;SDS011;16068;42.896;20.868;2023-08-20T02:51:22;10.07;;;3.50;;
28960;SDS011;16068;42.896;20.868;2023-08-20T02:54:08;9.63;;;3.47;;
28960;SDS011;16068;42.896;20.868;2023-08-20T02:56:55;5.43;;;3.42;;
28960;SDS011;16068;42.896;20.868;2023-08-20T02:59:42;7.18;;;3.53;;
28960;SDS011;16068;42.896;20.868;2023-08-20T03:02:29;5.43;;;3.75;;
28960;SDS011;16068;42.896;20.868;2023-08-20T03:05:15;6.65;;;3.50;;
28960;SDS011;16068;42.896;20.868;2023-08-20T03:08:01;7.28;;;3.33;;
28960;SDS011;16068;42.896;20.868;2023-08-20T03:10:49;9.73;;;3.42;;
28960;SDS011;16068;42.896;20.868;2023-08-20T03:13:35;5.25;;;3.17;;
28960;SDS011;16068;42.896;20.868;2023-08-20T03:16:22;6.65;;;3.55;;
28960;SDS011;16068;42.896;20.868;2023-08-20T03:19:08;5.38;;;3.67;;
28960;SDS011;16068;42.896;20.868;2023-08-20T03:22:00;10.45;;;4.20;;
28960;SDS011;16068;42.896;20.868;2023-08-20T03:24:46;6.72;;;3.88;;
28960;SDS011;16068;42.896;20.868;2023-08-20T03:27:32;11.85;;;4.40;;
28960;SDS011;16068;42.896;20.868;2023-08-20T03:30:20;6.10;;;3.63;;
28960;SDS011;16068;42.896;20.868;2023-08-20T03:33:06;11.18;;;3.90;;
28960;SDS011;16068;42.896;20.868;2023-08-20T03:35:54;8.05;;;3.88;;
28960;SDS011;16068;42.896;20.868;2023-08-20T03:38:44;20.08;;;4.45;;
28960;SDS011;16068;42.896;20.868;2023-08-20T03:41:31;8.77;;;3.63;;
28960;SDS011;16068;42.896;20.868;2023-08-20T03:44:17;8.48;;;4.30;;
28960;SDS011;16068;42.896;20.868;2023-08-20T03:47:09;6.20;;;3.53;;
28960;SDS011;16068;42.896;20.868;2023-08-20T03:49:55;9.52;;;4.03;;
28960;SDS011;16068;42.896;20.868;2023-08-20T03:52:42;8.85;;;4.20;;
28960;SDS011;16068;42.896;20.868;2023-08-20T03:55:29;9.35;;;4.50;;
28960;SDS011;16068;42.896;20.868;2023-08-20T03:58:16;10.52;;;3.95;;
28960;SDS011;16068;42.896;20.868;2023-08-20T04:11:27;10.27;;;4.10;;
28960;SDS011;16068;42.896;20.868;2023-08-20T04:14:12;9.77;;;3.90;;
28960;SDS011;16068;42.896;20.868;2023-08-20T04:17:05;5.28;;;3.60;;
28960;SDS011;16068;42.896;20.868;2023-08-20T04:19:51;6.57;;;3.60;;
28960;SDS011;16068;42.896;20.868;2023-08-20T04:22:37;12.20;;;4.07;;
28960;SDS011;16068;42.896;20.868;2023-08-20T04:28:33;9.23;;;3.45;;
28960;SDS011;16068;42.896;20.868;2023-08-20T04:34:30;9.23;;;4.20;;
28960;SDS011;16068;42.896;20.868;2023-08-20T04:37:19;7.68;;;3.75;;
28960;SDS011;16068;42.896;20.868;2023-08-20T04:40:05;5.85;;;3.92;;
28960;SDS011;16068;42.896;20.868;2023-08-20T04:43:01;7.03;;;4.10;;
28960;SDS011;16068;42.896;20.868;2023-08-20T04:45:49;6.38;;;3.40;;
28960;SDS011;16068;42.896;20.868;2023-08-20T04:48:43;7.03;;;3.63;;
28960;SDS011;16068;42.896;20.868;2023-08-20T04:51:30;7.43;;;3.83;;
28960;SDS011;16068;42.896;20.868;2023-08-20T04:54:16;6.93;;;4.10;;
28960;SDS011;16068;42.896;20.868;2023-08-20T04:57:04;5.30;;;3.80;;
28960;SDS011;16068;42.896;20.868;2023-08-20T04:59:50;10.07;;;4.05;;
28960;SDS011;16068;42.896;20.868;2023-08-20T05:06:03;15.00;;;3.60;;
28960;SDS011;16068;42.896;20.868;2023-08-20T05:08:50;11.27;;;3.88;;
28960;SDS011;16068;42.896;20.868;2023-08-20T05:11:41;11.88;;;3.97;;
28960;SDS011;16068;42.896;20.868;2023-08-20T05:14:29;7.45;;;4.00;;
28960;SDS011;16068;42.896;20.868;2023-08-20T05:17:16;9.15;;;3.85;;
28960;SDS011;16068;42.896;20.868;2023-08-20T05:20:02;8.63;;;3.80;;
28960;SDS011;16068;42.896;20.868;2023-08-20T05:22:49;13.68;;;4.22;;
28960;SDS011;16068;42.896;20.868;2023-08-20T05:25:35;6.93;;;3.85;;
28960;SDS011;16068;42.896;20.868;2023-08-20T05:31:36;5.47;;;4.10;;
28960;SDS011;16068;42.896;20.868;2023-08-20T05:34:22;7.55;;;3.70;;
28960;SDS011;16068;42.896;20.868;2023-08-20T05:37:12;9.75;;;4.00;;
28960;SDS011;16068;42.896;20.868;2023-08-20T05:39:58;11.20;;;3.70;;
28960;SDS011;16068;42.896;20.868;2023-08-20T05:42:55;5.28;;;3.58;;
28960;SDS011;16068;42.896;20.868;2023-08-20T05:45:41;9.02;;;3.55;;
28960;SDS011;16068;42.896;20.868;2023-08-20T05:48:31;6.75;;;3.70;;
28960;SDS011;16068;42.896;20.868;2023-08-20T05:51:17;6.80;;;3.90;;
28960;SDS011;16068;42.896;20.868;2023-08-20T05:54:14;10.70;;;3.88;;
28960;SDS011;16068;42.896;20.868;2023-08-20T05:57:00;4.72;;;3.35;;
28960;SDS011;16068;42.896;20.868;2023-08-20T05:59:47;10.18;;;4.53;;
28960;SDS011;16068;42.896;20.868;2023-08-20T06:02:33;6.72;;;3.92;;
28960;SDS011;16068;42.896;20.868;2023-08-20T06:05:20;6.05;;;3.75;;
28960;SDS011;16068;42.896;20.868;2023-08-20T06:08:08;10.13;;;3.95;;
28960;SDS011;16068;42.896;20.868;2023-08-20T06:10:54;8.38;;;3.95;;
28960;SDS011;16068;42.896;20.868;2023-08-20T06:13:40;8.50;;;3.50;;
28960;SDS011;16068;42.896;20.868;2023-08-20T06:16:27;8.10;;;4.00;;
28960;SDS011;16068;42.896;20.868;2023-08-20T06:19:16;5.72;;;3.72;;
28960;SDS011;16068;42.896;20.868;2023-08-20T06:22:03;9.30;;;4.03;;
28960;SDS011;16068;42.896;20.868;2023-08-20T06:24:49;17.08;;;10.90;;
28960;SDS011;16068;42.896;20.868;2023-08-20T06:27:35;20.20;;;11.05;;
28960;SDS011;16068;42.896;20.868;2023-08-20T06:30:23;27.13;;;18.55;;
28960;SDS011;16068;42.896;20.868;2023-08-20T06:33:13;12.02;;;8.15;;
28960;SDS011;16068;42.896;20.868;2023-08-20T06:35:59;12.73;;;7.45;;
28960;SDS011;16068;42.896;20.868;2023-08-20T06:38:45;19.52;;;12.75;;
28960;SDS011;16068;42.896;20.868;2023-08-20T06:41:31;13.68;;;7.10;;
28960;SDS011;16068;42.896;20.868;2023-08-20T06:44:17;7.93;;;4.70;;
28960;SDS011;16068;42.896;20.868;2023-08-20T06:47:03;9.02;;;3.80;;
28960;SDS011;16068;42.896;20.868;2023-08-20T06:49:50;7.85;;;3.75;;
28960;SDS011;16068;42.896;20.868;2023-08-20T06:52:39;12.50;;;3.88;;
28960;SDS011;16068;42.896;20.868;2023-08-20T06:55:25;6.00;;;3.85;;
28960;SDS011;16068;42.896;20.868;2023-08-20T06:58:10;11.73;;;4.30;;
28960;SDS011;16068;42.896;20.868;2023-08-20T07:00:57;9.63;;;3.75;;
28960;SDS011;16068;42.896;20.868;2023-08-20T07:03:52;8.00;;;3.50;;
28960;SDS011;16068;42.896;20.868;2023-08-20T07:06:38;6.35;;;3.55;;
28960;SDS011;16068;42.896;20.868;2023-08-20T07:09:26;7.50;;;3.80;;
28960;SDS011;16068;42.896;20.868;2023-08-20T07:12:12;11.00;;;4.68;;
28960;SDS011;16068;42.896;20.868;2023-08-20T07:14:59;8.00;;;4.30;;
28960;SDS011;16068;42.896;20.868;2023-08-20T07:17:45;8.82;;;4.57;;
28960;SDS011;16068;42.896;20.868;2023-08-20T07:20:31;12.02;;;3.80;;
28960;SDS011;16068;42.896;20.868;2023-08-20T07:23:18;12.27;;;4.78;;
28960;SDS011;16068;42.896;20.868;2023-08-20T07:26:07;8.60;;;4.10;;
28960;SDS011;16068;42.896;20.868;2023-08-20T07:28:54;8.77;;;4.10;;
28960;SDS011;16068;42.896;20.868;2023-08-20T07:31:43;7.75;;;3.92;;
28960;SDS011;16068;42.896;20.868;2023-08-20T07:34:29;7.88;;;4.25;;
28960;SDS011;16068;42.896;20.868;2023-08-20T07:37:20;8.15;;;4.00;;
28960;SDS011;16068;42.896;20.868;2023-08-20T07:40:07;9.88;;;3.72;;
28960;SDS011;16068;42.896;20.868;2023-08-20T07:42:55;8.30;;;3.78;;
28960;SDS011;16068;42.896;20.868;2023-08-20T07:45:42;6.65;;;3.78;;
28960;SDS011;16068;42.896;20.868;2023-08-20T07:48:28;7.82;;;3.53;;
28960;SDS011;16068;42.896;20.868;2023-08-20T07:51:14;12.20;;;4.22;;
28960;SDS011;16068;42.896;20.868;2023-08-20T07:54:01;11.60;;;3.50;;
28960;SDS011;16068;42.896;20.868;2023-08-20T07:56:48;6.25;;;3.45;;
28960;SDS011;16068;42.896;20.868;2023-08-20T07:59:49;10.23;;;3.97;;
28960;SDS011;16068;42.896;20.868;2023-08-20T08:02:35;8.95;;;3.55;;
28960;SDS011;16068;42.896;20.868;2023-08-20T08:05:21;9.40;;;3.63;;
28960;SDS011;16068;42.896;20.868;2023-08-20T08:08:07;8.30;;;4.20;;
28960;SDS011;16068;42.896;20.868;2023-08-20T08:10:57;6.35;;;3.58;;
28960;SDS011;16068;42.896;20.868;2023-08-20T08:13:43;7.55;;;4.03;;
28960;SDS011;16068;42.896;20.868;2023-08-20T08:16:29;9.13;;;3.88;;
28960;SDS011;16068;42.896;20.868;2023-08-20T08:19:17;10.57;;;4.57;;
28960;SDS011;16068;42.896;20.868;2023-08-20T08:22:04;6.35;;;3.90;;
28960;SDS011;16068;42.896;20.868;2023-08-20T08:24:50;10.95;;;3.90;;
28960;SDS011;16068;42.896;20.868;2023-08-20T08:27:36;5.88;;;3.70;;
28960;SDS011;16068;42.896;20.868;2023-08-20T08:30:42;5.28;;;3.28;;
28960;SDS011;16068;42.896;20.868;2023-08-20T08:33:28;9.57;;;3.75;;
28960;SDS011;16068;42.896;20.868;2023-08-20T08:36:14;7.22;;;3.40;;
28960;SDS011;16068;42.896;20.868;2023-08-20T08:39:02;9.27;;;3.20;;
28960;SDS011;16068;42.896;20.868;2023-08-20T08:41:53;9.75;;;3.30;;
28960;SDS011;16068;42.896;20.868;2023-08-20T08:44:44;5.50;;;3.30;;
28960;SDS011;16068;42.896;20.868;2023-08-20T08:47:32;8.90;;;3.80;;
28960;SDS011;16068;42.896;20.868;2023-08-20T08:50:20;29.70;;;23.08;;
28960;SDS011;16068;42.896;20.868;2023-08-20T08:53:07;22.55;;;15.32;;
28960;SDS011;16068;42.896;20.868;2023-08-20T08:55:54;25.77;;;17.08;;
28960;SDS011;16068;42.896;20.868;2023-08-20T08:58:44;13.32;;;5.38;;
28960;SDS011;16068;42.896;20.868;2023-08-20T09:01:37;11.65;;;5.78;;
28960;SDS011;16068;42.896;20.868;2023-08-20T09:04:34;9.02;;;4.07;;
28960;SDS011;16068;42.896;20.868;2023-08-20T09:07:30;10.45;;;4.10;;
28960;SDS011;16068;42.896;20.868;2023-08-20T09:10:19;9.25;;;3.70;;
28960;SDS011;16068;42.896;20.868;2023-08-20T09:13:05;9.32;;;4.38;;
28960;SDS011;16068;42.896;20.868;2023-08-20T09:15:52;9.13;;;3.97;;
28960;SDS011;16068;42.896;20.868;2023-08-20T09:18:41;8.52;;;3.80;;
28960;SDS011;16068;42.896;20.868;2023-08-20T09:21:30;8.63;;;3.50;;
28960;SDS011;16068;42.896;20.868;2023-08-20T09:24:16;12.75;;;3.72;;
28960;SDS011;16068;42.896;20.868;2023-08-20T09:27:05;8.88;;;3.78;;
28960;SDS011;16068;42.896;20.868;2023-08-20T09:29:52;7.05;;;3.22;;
28960;SDS011;16068;42.896;20.868;2023-08-20T09:33:02;13.32;;;4.07;;
28960;SDS011;16068;42.896;20.868;2023-08-20T09:35:49;8.75;;;3.22;;
28960;SDS011;16068;42.896;20.868;2023-08-20T09:38:37;17.60;;;3.80;;
28960;SDS011;16068;42.896;20.868;2023-08-20T09:41:24;9.23;;;3.63;;
28960;SDS011;16068;42.896;20.868;2023-08-20T09:44:11;5.72;;;4.22;;
28960;SDS011;16068;42.896;20.868;2023-08-20T09:46:58;16.00;;;3.72;;
28960;SDS011;16068;42.896;20.868;2023-08-20T09:49:45;5.80;;;3.70;;
28960;SDS011;16068;42.896;20.868;2023-08-20T09:52:35;73.68;;;6.18;;
28960;SDS011;16068;42.896;20.868;2023-08-20T09:55:28;7.97;;;3.08;;
28960;SDS011;16068;42.896;20.868;2023-08-20T09:58:24;6.60;;;2.88;;
28960;SDS011;16068;42.896;20.868;2023-08-20T10:01:18;6.93;;;2.95;;
28960;SDS011;16068;42.896;20.868;2023-08-20T10:04:05;6.35;;;3.22;;
28960;SDS011;16068;42.896;20.868;2023-08-20T10:06:52;6.78;;;3.00;;
28960;SDS011;16068;42.896;20.868;2023-08-20T10:09:47;18.38;;;3.65;;
28960;SDS011;16068;42.896;20.868;2023-08-20T10:12:35;6.93;;;3.42;;
28960;SDS011;16068;42.896;20.868;2023-08-20T10:15:32;7.95;;;3.15;;
28960;SDS011;16068;42.896;20.868;2023-08-20T10:18:19;5.80;;;3.08;;
28960;SDS011;16068;42.896;20.868;2023-08-20T10:21:12;8.52;;;3.53;;
28960;SDS011;16068;42.896;20.868;2023-08-20T10:24:08;12.18;;;3.50;;
28960;SDS011;16068;42.896;20.868;2023-08-20T10:27:46;11.05;;;3.45;;
28960;SDS011;16068;42.896;20.868;2023-08-20T10:30:27;7.88;;;3.67;;
28960;SDS011;16068;42.896;20.868;2023-08-20T10:33:13;13.63;;;3.40;;
28960;SDS011;16068;42.896;20.868;2023-08-20T10:36:09;9.18;;;3.13;;
28960;SDS011;16068;42.896;20.868;2023-08-20T10:38:58;7.70;;;3.20;;
28960;SDS011;16068;42.896;20.868;2023-08-20T10:45:13;9.70;;;3.80;;
28960;SDS011;16068;42.896;20.868;2023-08-20T10:47:59;19.02;;;4.55;;
28960;SDS011;16068;42.896;20.868;2023-08-20T10:50:45;33.50;;;6.80;;
28960;SDS011;16068;42.896;20.868;2023-08-20T10:53:35;15.50;;;4.05;;
28960;SDS011;16068;42.896;20.868;2023-08-20T10:56:21;14.82;;;4.10;;
28960;SDS011;16068;42.896;20.868;2023-08-20T10:59:09;11.73;;;3.55;;
28960;SDS011;16068;42.896;20.868;2023-08-20T11:01:59;9.55;;;3.70;;
28960;SDS011;16068;42.896;20.868;2023-08-20T11:04:49;10.77;;;3.55;;
28960;SDS011;16068;42.896;20.868;2023-08-20T11:07:35;8.50;;;3.50;;
28960;SDS011;16068;42.896;20.868;2023-08-20T11:10:26;8.23;;;3.78;;
28960;SDS011;16068;42.896;20.868;2023-08-20T11:13:13;14.73;;;3.67;;
28960;SDS011;16068;42.896;20.868;2023-08-20T11:16:00;6.68;;;4.15;;
28960;SDS011;16068;42.896;20.868;2023-08-20T11:18:47;11.23;;;4.05;;
28960;SDS011;16068;42.896;20.868;2023-08-20T11:21:33;6.90;;;3.20;;
28960;SDS011;16068;42.896;20.868;2023-08-20T11:24:31;9.02;;;3.03;;
28960;SDS011;16068;42.896;20.868;2023-08-20T11:27:18;10.25;;;3.45;;
28960;SDS011;16068;42.896;20.868;2023-08-20T11:30:11;10.75;;;3.30;;
28960;SDS011;16068;42.896;20.868;2023-08-20T11:32:59;10.27;;;3.22;;
28960;SDS011;16068;42.896;20.868;2023-08-20T11:35:49;5.15;;;2.58;;
28960;SDS011;16068;42.896;20.868;2023-08-20T11:38:35;7.55;;;2.78;;
28960;SDS011;16068;42.896;20.868;2023-08-20T11:41:22;5.63;;;2.97;;
28960;SDS011;16068;42.896;20.868;2023-08-20T11:44:09;13.07;;;2.88;;
28960;SDS011;16068;42.896;20.868;2023-08-20T11:46:55;8.93;;;2.50;;
28960;SDS011;16068;42.896;20.868;2023-08-20T11:49:43;7.57;;;2.90;;
28960;SDS011;16068;42.896;20.868;2023-08-20T11:52:30;5.22;;;2.85;;
28960;SDS011;16068;42.896;20.868;2023-08-20T11:55:21;8.20;;;5.13;;
28960;SDS011;16068;42.896;20.868;2023-08-20T11:58:12;8.30;;;6.63;;
28960;SDS011;16068;42.896;20.868;2023-08-20T12:00:58;13.43;;;5.82;;
28960;SDS011;16068;42.896;20.868;2023-08-20T12:03:46;19.33;;;11.55;;
28960;SDS011;16068;42.896;20.868;2023-08-20T12:06:32;6.47;;;4.35;;
28960;SDS011;16068;42.896;20.868;2023-08-20T12:09:23;10.23;;;3.30;;
28960;SDS011;16068;42.896;20.868;2023-08-20T12:12:09;6.78;;;2.92;;
28960;SDS011;16068;42.896;20.868;2023-08-20T12:14:59;7.03;;;3.08;;
28960;SDS011;16068;42.896;20.868;2023-08-20T12:17:58;15.40;;;4.63;;
28960;SDS011;16068;42.896;20.868;2023-08-20T12:20:50;13.10;;;5.55;;
28960;SDS011;16068;42.896;20.868;2023-08-20T12:23:37;16.60;;;4.75;;
28960;SDS011;16068;42.896;20.868;2023-08-20T12:26:26;14.52;;;4.60;;
28960;SDS011;16068;42.896;20.868;2023-08-20T12:29:12;6.40;;;3.55;;
28960;SDS011;16068;42.896;20.868;2023-08-20T12:31:59;7.15;;;3.10;;
28960;SDS011;16068;42.896;20.868;2023-08-20T12:34:45;11.20;;;3.95;;
28960;SDS011;16068;42.896;20.868;2023-08-20T12:37:32;7.93;;;3.50;;
28960;SDS011;16068;42.896;20.868;2023-08-20T12:40:19;30.38;;;22.52;;
28960;SDS011;16068;42.896;20.868;2023-08-20T12:43:06;35.85;;;27.27;;
28960;SDS011;16068;42.896;20.868;2023-08-20T12:45:52;18.60;;;9.73;;
28960;SDS011;16068;42.896;20.868;2023-08-20T12:48:46;8.50;;;4.95;;
28960;SDS011;16068;42.896;20.868;2023-08-20T12:51:32;7.60;;;3.85;;
28960;SDS011;16068;42.896;20.868;2023-08-20T12:54:19;10.18;;;3.78;;
28960;SDS011;16068;42.896;20.868;2023-08-20T12:57:05;6.63;;;3.42;;
28960;SDS011;16068;42.896;20.868;2023-08-20T12:59:51;34.53;;;23.17;;
28960;SDS011;16068;42.896;20.868;2023-08-20T13:02:37;43.10;;;28.63;;
28960;SDS011;16068;42.896;20.868;2023-08-20T13:05:24;22.08;;;9.80;;
28960;SDS011;16068;42.896;20.868;2023-08-20T13:08:16;9.65;;;6.85;;
28960;SDS011;16068;42.896;20.868;2023-08-20T13:11:02;7.32;;;3.90;;
28960;SDS011;16068;42.896;20.868;2023-08-20T13:13:55;5.60;;;3.70;;
28960;SDS011;16068;42.896;20.868;2023-08-20T13:16:41;28.80;;;16.65;;
28960;SDS011;16068;42.896;20.868;2023-08-20T13:19:30;18.05;;;11.73;;
28960;SDS011;16068;42.896;20.868;2023-08-20T13:22:16;13.60;;;8.23;;
28960;SDS011;16068;42.896;20.868;2023-08-20T13:25:07;14.80;;;7.28;;
28960;SDS011;16068;42.896;20.868;2023-08-20T13:27:53;40.75;;;28.42;;
28960;SDS011;16068;42.896;20.868;2023-08-20T13:30:47;43.78;;;28.15;;
28960;SDS011;16068;42.896;20.868;2023-08-20T13:33:34;20.10;;;11.63;;
28960;SDS011;16068;42.896;20.868;2023-08-20T13:36:20;11.50;;;6.10;;
28960;SDS011;16068;42.896;20.868;2023-08-20T13:39:06;11.75;;;6.45;;
28960;SDS011;16068;42.896;20.868;2023-08-20T13:41:54;7.63;;;5.35;;
28960;SDS011;16068;42.896;20.868;2023-08-20T13:44:40;12.80;;;7.13;;
28960;SDS011;16068;42.896;20.868;2023-08-20T13:47:27;9.57;;;6.13;;
28960;SDS011;16068;42.896;20.868;2023-08-20T13:50:13;9.18;;;3.88;;
28960;SDS011;16068;42.896;20.868;2023-08-20T13:53:00;7.57;;;4.85;;
28960;SDS011;16068;42.896;20.868;2023-08-20T13:55:46;9.35;;;5.03;;
28960;SDS011;16068;42.896;20.868;2023-08-20T13:58:33;5.25;;;3.65;;
28960;SDS011;16068;42.896;20.868;2023-08-20T14:01:20;8.13;;;4.45;;
28960;SDS011;16068;42.896;20.868;2023-08-20T14:04:06;8.48;;;5.57;;
28960;SDS011;16068;42.896;20.868;2023-08-20T14:06:54;10.57;;;5.18;;
28960;SDS011;16068;42.896;20.868;2023-08-20T14:09:39;6.82;;;3.33;;
28960;SDS011;16068;42.896;20.868;2023-08-20T14:12:27;28.70;;;19.60;;
28960;SDS011;16068;42.896;20.868;2023-08-20T14:15:13;17.60;;;10.75;;
28960;SDS011;16068;42.896;20.868;2023-08-20T14:18:00;9.05;;;5.40;;
28960;SDS011;16068;42.896;20.868;2023-08-20T14:20:46;9.30;;;4.30;;
28960;SDS011;16068;42.896;20.868;2023-08-20T14:23:34;6.90;;;3.28;;
28960;SDS011;16068;42.896;20.868;2023-08-20T14:26:20;9.10;;;3.67;;
28960;SDS011;16068;42.896;20.868;2023-08-20T14:29:06;9.23;;;4.45;;
28960;SDS011;16068;42.896;20.868;2023-08-20T14:31:52;8.52;;;3.28;;
28960;SDS011;16068;42.896;20.868;2023-08-20T14:34:38;11.05;;;4.40;;
28960;SDS011;16068;42.896;20.868;2023-08-20T14:37:25;8.52;;;4.43;;
28960;SDS011;16068;42.896;20.868;2023-08-20T14:40:13;16.85;;;9.60;;
28960;SDS011;16068;42.896;20.868;2023-08-20T14:43:02;20.58;;;12.88;;
28960;SDS011;16068;42.896;20.868;2023-08-20T14:45:54;9.32;;;5.65;;
28960;SDS011;16068;42.896;20.868;2023-08-20T14:48:43;24.57;;;15.40;;
28960;SDS011;16068;42.896;20.868;2023-08-20T14:51:38;31.33;;;19.88;;
28960;SDS011;16068;42.896;20.868;2023-08-20T14:54:23;20.02;;;11.25;;
28960;SDS011;16068;42.896;20.868;2023-08-20T14:57:15;14.60;;;6.70;;
28960;SDS011;16068;42.896;20.868;2023-08-20T15:00:03;24.60;;;18.90;;
28960;SDS011;16068;42.896;20.868;2023-08-20T15:02:55;31.50;;;20.85;;
28960;SDS011;16068;42.896;20.868;2023-08-20T15:05:42;42.53;;;20.95;;
28960;SDS011;16068;42.896;20.868;2023-08-20T15:08:29;22.70;;;11.00;;
28960;SDS011;16068;42.896;20.868;2023-08-20T15:11:18;13.77;;;8.48;;
28960;SDS011;16068;42.896;20.868;2023-08-20T15:14:07;11.50;;;5.40;;
28960;SDS011;16068;42.896;20.868;2023-08-20T15:16:55;20.75;;;15.43;;
28960;SDS011;16068;42.896;20.868;2023-08-20T15:19:44;15.80;;;10.70;;
28960;SDS011;16068;42.896;20.868;2023-08-20T15:22:31;20.65;;;11.90;;
28960;SDS011;16068;42.896;20.868;2023-08-20T15:25:20;16.35;;;9.00;;
28960;SDS011;16068;42.896;20.868;2023-08-20T15:28:05;15.60;;;9.38;;
28960;SDS011;16068;42.896;20.868;2023-08-20T15:30:52;8.35;;;5.65;;
28960;SDS011;16068;42.896;20.868;2023-08-20T15:33:40;10.48;;;5.93;;
28960;SDS011;16068;42.896;20.868;2023-08-20T15:36:25;9.70;;;6.13;;
28960;SDS011;16068;42.896;20.868;2023-08-20T15:39:12;11.32;;;8.25;;
28960;SDS011;16068;42.896;20.868;2023-08-20T15:41:58;11.43;;;8.60;;
28960;SDS011;16068;42.896;20.868;2023-08-20T15:44:44;21.25;;;14.45;;
28960;SDS011;16068;42.896;20.868;2023-08-20T15:47:30;14.02;;;11.90;;
28960;SDS011;16068;42.896;20.868;2023-08-20T15:50:17;29.85;;;24.10;;
28960;SDS011;16068;42.896;20.868;2023-08-20T15:53:03;19.42;;;12.18;;
28960;SDS011;16068;42.896;20.868;2023-08-20T15:55:50;14.00;;;7.22;;
28960;SDS011;16068;42.896;20.868;2023-08-20T15:58:36;12.18;;;5.80;;
28960;SDS011;16068;42.896;20.868;2023-08-20T16:01:22;7.03;;;4.43;;
28960;SDS011;16068;42.896;20.868;2023-08-20T16:04:11;6.38;;;4.65;;
28960;SDS011;16068;42.896;20.868;2023-08-20T16:06:57;8.27;;;4.65;;
28960;SDS011;16068;42.896;20.868;2023-08-20T16:09:43;6.55;;;4.47;;
28960;SDS011;16068;42.896;20.868;2023-08-20T16:12:30;9.60;;;4.57;;
28960;SDS011;16068;42.896;20.868;2023-08-20T16:15:17;9.68;;;5.30;;
28960;SDS011;16068;42.896;20.868;2023-08-20T16:18:04;11.10;;;4.80;;
28960;SDS011;16068;42.896;20.868;2023-08-20T16:20:51;8.90;;;3.95;;
28960;SDS011;16068;42.896;20.868;2023-08-20T16:23:39;8.38;;;3.70;;
28960;SDS011;16068;42.896;20.868;2023-08-20T16:26:25;12.55;;;5.15;;
28960;SDS011;16068;42.896;20.868;2023-08-20T16:29:11;11.10;;;5.20;;
28960;SDS011;16068;42.896;20.868;2023-08-20T16:31:57;17.58;;;4.30;;
28960;SDS011;16068;42.896;20.868;2023-08-20T16:34:46;27.98;;;16.13;;
28960;SDS011;16068;42.896;20.868;2023-08-20T16:37:32;44.78;;;28.23;;
28960;SDS011;16068;42.896;20.868;2023-08-20T16:40:22;50.15;;;29.88;;
28960;SDS011;16068;42.896;20.868;2023-08-20T16:43:08;57.50;;;30.88;;
28960;SDS011;16068;42.896;20.868;2023-08-20T16:45:58;62.03;;;36.70;;
28960;SDS011;16068;42.896;20.868;2023-08-20T16:48:45;43.20;;;26.02;;
28960;SDS011;16068;42.896;20.868;2023-08-20T16:51:31;35.42;;;18.10;;
28960;SDS011;16068;42.896;20.868;2023-08-20T16:54:17;38.92;;;20.23;;
28960;SDS011;16068;42.896;20.868;2023-08-20T16:57:03;29.02;;;15.43;;
28960;SDS011;16068;42.896;20.868;2023-08-20T16:59:50;19.20;;;8.13;;
28960;SDS011;16068;42.896;20.868;2023-08-20T17:02:36;10.73;;;6.90;;